Terminal Aerodrome Forecast
Issued by NWS

Home | Current Version | Previous Version | Text Only | Print | Product List | Glossary On
Versions: 1 2 3 4 5 6 7 8 9 10 11 12 13 14 15 16 17 18 19 20 21 22 23 24 25 26 27 28 29 30
000
FTUS44 KLIX 231300 AAB
TAFHUM
TAF AMD
KHUM 231353Z 2314/2412 18011KT 6SM -RA BR BKN040
     FM231500 21013KT 3SM -SHRA OVC009
     FM231800 22013KT P6SM SCT025
     FM240000 18009KT P6SM SKC=

USA.gov is the U.S. government's official web portal to all federal, state and local government web resources and services.